createdAt,value
2023-02-24T00:04:34.720Z,6.49
2023-02-24T00:09:37.114Z,6.46
2023-02-24T00:14:38.267Z,6.46
2023-02-24T00:19:39.476Z,6.38
2023-02-24T00:24:40.642Z,6.36
2023-02-24T00:29:42.047Z,6.13
2023-02-24T00:34:43.921Z,5.96
2023-02-24T00:39:45.183Z,5.87
2023-02-24T00:44:46.442Z,5.77
2023-02-24T00:49:48.210Z,5.81
2023-02-24T00:54:49.504Z,5.73
2023-02-24T00:59:51.810Z,5.73
2023-02-24T01:04:54.067Z,5.70
2023-02-24T01:09:55.257Z,5.66
2023-02-24T01:14:56.506Z,5.63
2023-02-24T01:20:00.814Z,5.66
2023-02-24T01:25:01.966Z,5.66
2023-02-24T01:30:04.877Z,5.66
2023-02-24T01:35:06.415Z,5.70
2023-02-24T01:40:11.713Z,5.62
2023-02-24T01:45:13.171Z,5.58
2023-02-24T01:50:15.764Z,5.52
2023-02-24T01:55:19.930Z,5.44
2023-02-24T02:00:44.938Z,5.39
2023-02-24T02:05:48.584Z,5.34
2023-02-24T02:10:49.853Z,5.18
2023-02-24T02:15:52.219Z,5.11
2023-02-24T02:20:55.695Z,5.12
2023-02-24T02:25:56.890Z,5.15
2023-02-24T02:30:58.178Z,5.17
2023-02-24T02:36:00.575Z,5.07
2023-02-24T02:41:02.048Z,5.07
2023-02-24T02:46:04.325Z,5.02
2023-02-24T02:51:05.487Z,4.97
2023-02-24T02:56:06.724Z,4.92
2023-02-24T03:01:07.994Z,4.81
2023-02-24T03:06:09.308Z,4.84
2023-02-24T03:11:10.477Z,4.72
2023-02-24T03:16:11.707Z,4.59
2023-02-24T03:21:12.910Z,4.53
2023-02-24T03:26:17.385Z,4.50
2023-02-24T03:31:18.965Z,4.45
2023-02-24T03:36:20.382Z,4.49
2023-02-24T03:41:22.064Z,4.56
2023-02-24T03:46:23.596Z,4.49
2023-02-24T03:51:24.860Z,4.38
2023-02-24T03:56:26.053Z,4.27
2023-02-24T04:01:27.251Z,4.27
2023-02-24T04:06:28.445Z,4.23
2023-02-24T04:11:29.637Z,4.27
2023-02-24T04:16:36.286Z,4.34
2023-02-24T04:21:37.529Z,4.38
2023-02-24T04:26:40.425Z,4.31
2023-02-24T04:31:41.834Z,4.28
2023-02-24T04:36:49.384Z,4.27
2023-02-24T04:41:50.556Z,4.31
2023-02-24T04:46:51.847Z,4.30
2023-02-24T04:51:53.016Z,4.28
2023-02-24T04:56:54.197Z,4.23
2023-02-24T05:01:55.389Z,4.10
2023-02-24T05:06:57.410Z,3.90
2023-02-24T05:11:59.075Z,3.79
2023-02-24T05:17:00.640Z,3.70
2023-02-24T05:22:06.909Z,3.69
2023-02-24T05:27:08.490Z,3.68
2023-02-24T05:32:09.789Z,3.67
2023-02-24T05:37:11.021Z,3.72
2023-02-24T05:42:12.658Z,3.75
2023-02-24T05:47:13.870Z,3.80
2023-02-24T05:52:15.150Z,3.77
2023-02-24T05:57:19.029Z,3.69
2023-02-24T06:02:27.508Z,3.58
2023-02-24T06:07:29.035Z,3.56
2023-02-24T06:12:30.274Z,3.65
2023-02-24T06:17:31.420Z,3.72
2023-02-24T06:22:35.838Z,3.78
2023-02-24T06:27:39.035Z,3.74
2023-02-24T06:32:40.503Z,3.77
2023-02-24T06:37:41.868Z,3.84
2023-02-24T06:42:42.994Z,3.90
2023-02-24T06:47:46.548Z,3.91
2023-02-24T06:52:47.876Z,3.92
2023-02-24T06:57:50.095Z,4.03
2023-02-24T07:02:51.330Z,4.08
2023-02-24T07:07:52.508Z,4.05
2023-02-24T07:12:54.730Z,4.20
2023-02-24T07:17:55.902Z,4.22
2023-02-24T07:22:57.068Z,4.26
2023-02-24T07:28:01.005Z,3.95
2023-02-24T07:33:03.796Z,4.19
2023-02-24T07:38:05.495Z,4.18
2023-02-24T07:43:06.771Z,4.17
2023-02-24T07:48:07.967Z,4.22
2023-02-24T07:53:09.913Z,4.33
2023-02-24T07:58:11.148Z,4.35
2023-02-24T08:03:13.517Z,4.38
2023-02-24T08:08:20.878Z,4.48
2023-02-24T08:13:22.137Z,4.42
2023-02-24T08:18:23.302Z,4.39
2023-02-24T08:23:25.691Z,4.44
2023-02-24T08:28:27.329Z,4.53
2023-02-24T08:33:30.108Z,4.61
2023-02-24T08:38:39.552Z,4.59
2023-02-24T08:43:40.809Z,4.63
2023-02-24T08:48:46.352Z,4.67
2023-02-24T08:53:47.608Z,4.68
2023-02-24T08:58:48.826Z,4.77
2023-02-24T09:03:50.110Z,4.72
2023-02-24T09:09:09.238Z,4.68
2023-02-24T09:14:26.113Z,4.77
2023-02-24T09:19:40.827Z,4.95
2023-02-24T09:24:42.087Z,5.05
2023-02-24T09:29:49.344Z,4.93
2023-02-24T09:34:50.614Z,4.94
2023-02-24T09:39:57.909Z,4.91
2023-02-24T09:44:59.125Z,4.85
2023-02-24T09:50:00.422Z,4.73
2023-02-24T09:55:24.821Z,4.85
2023-02-24T10:00:26.010Z,5.01
2023-02-24T10:05:27.282Z,5.02
2023-02-24T10:10:28.531Z,5.04
2023-02-24T10:15:56.893Z,5.06
2023-02-24T10:20:58.452Z,5.27
2023-02-24T10:26:06.655Z,5.22
2023-02-24T10:31:20.353Z,5.13
2023-02-24T10:36:26.786Z,5.08
2023-02-24T10:41:29.255Z,4.99
2023-02-24T10:46:42.003Z,5.04
2023-02-24T10:51:43.827Z,5.01
2023-02-24T10:56:55.219Z,4.95
2023-02-24T11:01:59.662Z,4.93
2023-02-24T11:07:09.208Z,4.94
2023-02-24T11:12:28.965Z,5.00
2023-02-24T11:17:30.129Z,4.96
2023-02-24T11:22:31.578Z,4.90
2023-02-24T11:27:32.838Z,4.81
2023-02-24T11:32:34.463Z,4.70
2023-02-24T11:37:37.632Z,4.64
2023-02-24T11:42:38.853Z,4.62
2023-02-24T11:47:39.998Z,4.58
2023-02-24T11:52:41.189Z,4.59
2023-02-24T11:57:45.607Z,4.48
2023-02-24T12:02:47.037Z,4.47
2023-02-24T12:07:49.285Z,4.47
2023-02-24T12:12:50.447Z,4.40
2023-02-24T12:17:55.549Z,4.31
2023-02-24T12:22:56.704Z,4.37
2023-02-24T12:27:57.887Z,4.38
2023-02-24T12:32:59.111Z,4.41
2023-02-24T12:38:00.673Z,4.40
2023-02-24T12:43:02.093Z,4.28
2023-02-24T12:48:05.671Z,4.18
2023-02-24T12:53:06.801Z,4.22
2023-02-24T12:58:08.001Z,4.12
2023-02-24T13:03:09.255Z,4.03
2023-02-24T13:08:10.445Z,3.97
2023-02-24T13:13:11.690Z,3.87
2023-02-24T13:18:12.845Z,3.83
2023-02-24T13:23:14.085Z,3.82
2023-02-24T13:28:15.300Z,3.72
2023-02-24T13:33:16.521Z,3.60
2023-02-24T13:38:17.712Z,3.69
2023-02-24T13:43:18.911Z,3.74
2023-02-24T13:48:20.154Z,3.76
2023-02-24T13:53:23.647Z,3.76
2023-02-24T13:58:24.921Z,3.80
2023-02-24T14:03:30.519Z,3.74
2023-02-24T14:08:31.756Z,3.74
2023-02-24T14:13:34.135Z,3.78
2023-02-24T14:18:36.544Z,3.79
2023-02-24T14:23:37.764Z,3.80
2023-02-24T14:28:39.568Z,3.77
2023-02-24T14:33:40.814Z,3.81
2023-02-24T14:38:41.997Z,3.82
2023-02-24T14:43:43.281Z,3.82
2023-02-24T14:48:44.450Z,3.85
2023-02-24T14:53:45.636Z,3.86
2023-02-24T14:58:46.908Z,3.85
2023-02-24T15:03:48.095Z,3.87
2023-02-24T15:08:49.280Z,3.92
2023-02-24T15:13:50.556Z,3.93
2023-02-24T15:18:51.771Z,3.64
2023-02-24T15:23:52.976Z,3.91
2023-02-24T15:28:54.133Z,3.93
2023-02-24T15:33:55.376Z,3.95
2023-02-24T15:38:56.729Z,3.98
2023-02-24T15:43:57.957Z,4.03
2023-02-24T15:49:02.987Z,4.04
2023-02-24T15:54:04.620Z,4.03
2023-02-24T15:59:05.996Z,4.03
2023-02-24T16:04:09.497Z,4.07
2023-02-24T16:09:12.786Z,4.10
2023-02-24T16:14:14.039Z,4.20
2023-02-24T16:19:15.284Z,4.27
2023-02-24T16:24:16.532Z,4.37
2023-02-24T16:29:17.723Z,4.37
2023-02-24T16:34:18.955Z,4.38
2023-02-24T16:39:20.182Z,4.36
2023-02-24T16:44:22.291Z,4.37
2023-02-24T16:49:23.980Z,4.39
2023-02-24T16:54:29.059Z,4.43
2023-02-24T16:59:30.365Z,4.45
2023-02-24T17:04:31.980Z,4.47
2023-02-24T17:09:33.566Z,4.48
2023-02-24T17:14:34.792Z,4.50
2023-02-24T17:19:36.010Z,4.51
2023-02-24T17:24:37.199Z,4.53
2023-02-24T17:29:38.409Z,4.56
2023-02-24T17:34:39.613Z,4.60
2023-02-24T17:39:40.903Z,4.64
2023-02-24T17:44:42.668Z,4.65
2023-02-24T17:49:43.891Z,4.62
2023-02-24T17:54:45.131Z,4.67
2023-02-24T17:59:46.375Z,4.68
2023-02-24T18:04:47.583Z,4.73
2023-02-24T18:09:48.800Z,4.79
2023-02-24T18:15:02.358Z,4.84
2023-02-24T18:20:08.390Z,4.86
2023-02-24T18:25:09.857Z,4.88
2023-02-24T18:30:11.215Z,4.91
2023-02-24T18:35:12.474Z,4.92
2023-02-24T18:40:14.327Z,4.97
2023-02-24T18:45:15.473Z,5.00
2023-02-24T18:50:16.670Z,5.00
2023-02-24T18:55:17.926Z,4.99
2023-02-24T19:00:19.154Z,4.97
2023-02-24T19:05:20.454Z,4.96
2023-02-24T19:10:21.644Z,4.96
2023-02-24T19:15:22.860Z,4.94
2023-02-24T19:20:23.999Z,4.83
2023-02-24T19:25:25.159Z,4.68
2023-02-24T19:30:26.380Z,4.62
2023-02-24T19:35:27.660Z,4.63
2023-02-24T19:40:28.820Z,4.63
2023-02-24T19:45:30.043Z,4.63
2023-02-24T19:50:31.304Z,4.61
2023-02-24T19:55:32.482Z,4.59
2023-02-24T20:00:33.748Z,4.53
2023-02-24T20:05:34.972Z,4.44
2023-02-24T20:10:36.151Z,4.40
2023-02-24T20:15:37.353Z,4.41
2023-02-24T20:20:38.812Z,4.16
2023-02-24T20:25:41.097Z,4.49
2023-02-24T20:30:42.253Z,4.53
2023-02-24T20:35:43.433Z,4.51
2023-02-24T20:40:44.791Z,4.47
2023-02-24T20:45:45.996Z,4.29
2023-02-24T20:50:47.227Z,4.11
2023-02-24T20:55:48.420Z,3.78
2023-02-24T21:00:49.637Z,3.96
2023-02-24T21:05:58.832Z,3.79
2023-02-24T21:11:11.040Z,3.68
2023-02-24T21:16:12.423Z,3.62
2023-02-24T21:21:15.129Z,3.61
2023-02-24T21:26:16.412Z,3.61
2023-02-24T21:31:17.807Z,3.67
2023-02-24T21:36:20.890Z,3.64
2023-02-24T21:41:23.486Z,3.64
2023-02-24T21:46:27.928Z,3.63
2023-02-24T21:51:29.584Z,3.60
2023-02-24T21:56:30.991Z,3.59
2023-02-24T22:01:32.272Z,3.65
2023-02-24T22:06:33.574Z,3.71
2023-02-24T22:11:35.368Z,3.70
2023-02-24T22:16:36.777Z,3.74
2023-02-24T22:21:39.523Z,3.75
2023-02-24T22:26:40.764Z,3.75
2023-02-24T22:31:43.804Z,3.68
2023-02-24T22:36:45.242Z,3.67
2023-02-24T22:41:47.476Z,3.67
2023-02-24T22:46:48.925Z,3.67
2023-02-24T22:51:50.374Z,3.67
2023-02-24T22:56:51.600Z,3.69
2023-02-24T23:01:53.780Z,3.69
2023-02-24T23:06:55.146Z,3.73
2023-02-24T23:11:56.606Z,3.72
2023-02-24T23:16:58.741Z,3.74
2023-02-24T23:21:59.902Z,3.72
2023-02-24T23:27:01.180Z,3.72
2023-02-24T23:32:02.495Z,3.72
2023-02-24T23:37:03.739Z,3.67
2023-02-24T23:42:04.915Z,3.64
2023-02-24T23:47:06.088Z,3.61
2023-02-24T23:52:08.001Z,3.58
2023-02-24T23:57:09.213Z,3.59
